createdAt,value
2018-10-19T00:00:38.153Z,9.25
2018-10-19T00:01:38.232Z,9.17
2018-10-19T00:02:37.953Z,9.19
2018-10-19T00:03:37.879Z,9.22
2018-10-19T00:04:37.896Z,9.14
2018-10-19T00:05:37.719Z,9.14
2018-10-19T00:06:37.646Z,9.19
2018-10-19T00:07:37.567Z,9.25
2018-10-19T00:08:37.588Z,9.27
2018-10-19T00:09:37.409Z,9.20
2018-10-19T00:10:37.331Z,9.19
2018-10-19T00:11:37.254Z,9.19
2018-10-19T00:12:37.227Z,9.17
2018-10-19T00:13:37.099Z,9.24
2018-10-19T00:14:37.021Z,9.17
2018-10-19T00:15:36.948Z,9.19
2018-10-19T00:16:36.868Z,9.25
2018-10-19T00:17:36.789Z,9.25
2018-10-19T00:18:36.717Z,9.20
2018-10-19T00:19:36.685Z,9.27
2018-10-19T00:20:36.561Z,9.22
2018-10-19T00:21:36.477Z,9.25
2018-10-19T00:22:36.406Z,9.22
2018-10-19T00:23:36.325Z,9.27
2018-10-19T00:24:36.246Z,9.25
2018-10-19T00:25:36.169Z,9.25
2018-10-19T00:26:36.090Z,9.24
2018-10-19T00:27:36.014Z,9.22
2018-10-19T00:28:35.938Z,9.31
2018-10-19T00:29:35.858Z,9.40
2018-10-19T00:30:36.031Z,9.35
2018-10-19T00:31:35.725Z,9.32
2018-10-19T00:32:35.626Z,9.31
2018-10-19T00:33:35.548Z,9.34
2018-10-19T00:34:35.471Z,9.27
2018-10-19T00:35:35.393Z,9.20
2018-10-19T00:36:35.432Z,9.22
2018-10-19T00:37:35.238Z,9.17
2018-10-19T00:38:35.161Z,9.10
2018-10-19T00:39:35.084Z,9.10
2018-10-19T00:40:35.006Z,8.94
2018-10-19T00:41:35.177Z,9.05
2018-10-19T00:42:34.849Z,9.05
2018-10-19T00:43:34.775Z,8.98
2018-10-19T00:44:34.695Z,9.05
2018-10-19T00:45:34.619Z,9.05
2018-10-19T00:46:34.540Z,9.12
2018-10-19T00:47:34.463Z,9.05
2018-10-19T00:48:34.386Z,9.03
2018-10-19T00:49:34.306Z,9.02
2018-10-19T00:50:34.229Z,9.00
2018-10-19T00:51:34.153Z,8.90
2018-10-19T00:52:34.072Z,8.94
2018-10-19T00:53:33.997Z,8.91
2018-10-19T00:54:33.923Z,9.05
2018-10-19T00:55:33.840Z,8.97
2018-10-19T00:56:33.764Z,8.94
2018-10-19T00:57:33.685Z,9.02
2018-10-19T00:58:33.610Z,8.80
2018-10-19T00:59:33.533Z,8.93
2018-10-19T01:00:33.452Z,8.85
2018-10-19T01:01:33.376Z,8.77
2018-10-19T01:02:33.297Z,8.79
2018-10-19T01:03:33.219Z,8.82
2018-10-19T01:04:33.142Z,8.84
2018-10-19T01:05:33.062Z,8.82
2018-10-19T01:06:32.985Z,8.82
2018-10-19T01:07:32.910Z,8.91
2018-10-19T01:08:32.833Z,8.84
2018-10-19T01:09:32.753Z,9.02
2018-10-19T01:10:32.673Z,8.95
2018-10-19T01:11:32.596Z,8.98
2018-10-19T01:12:32.522Z,8.98
2018-10-19T01:13:32.440Z,8.84
2018-10-19T01:14:32.361Z,8.94
2018-10-19T01:15:32.286Z,8.82
2018-10-19T01:16:32.208Z,8.87
2018-10-19T01:17:32.129Z,8.88
2018-10-19T01:18:32.052Z,8.84
2018-10-19T01:19:32.074Z,8.85
2018-10-19T01:20:31.899Z,8.79
2018-10-19T01:21:31.817Z,8.82
2018-10-19T01:22:31.741Z,8.87
2018-10-19T01:23:31.663Z,8.88
2018-10-19T01:24:31.638Z,8.84
2018-10-19T01:25:31.507Z,8.84
2018-10-19T01:26:31.431Z,8.77
2018-10-19T01:27:31.351Z,8.69
2018-10-19T01:28:31.274Z,8.82
2018-10-19T01:29:31.194Z,8.80
2018-10-19T01:30:31.117Z,8.90
2018-10-19T01:31:31.039Z,8.85
2018-10-19T01:32:30.961Z,8.84
2018-10-19T01:33:30.883Z,8.85
2018-10-19T01:34:30.805Z,8.87
2018-10-19T01:35:30.926Z,8.91
2018-10-19T01:36:30.650Z,8.94
2018-10-19T01:37:30.571Z,8.97
2018-10-19T01:38:30.494Z,8.97
2018-10-19T01:39:30.417Z,8.94
2018-10-19T01:40:30.339Z,9.00
2018-10-19T01:41:30.259Z,9.02
2018-10-19T01:42:30.182Z,8.97
2018-10-19T01:43:30.104Z,9.05
2018-10-19T01:44:30.028Z,9.02
2018-10-19T01:45:29.949Z,9.05
2018-10-19T01:46:29.871Z,9.03
2018-10-19T01:47:29.793Z,9.12
2018-10-19T01:48:29.716Z,9.10
2018-10-19T01:49:29.637Z,9.09
2018-10-19T01:50:29.560Z,9.14
2018-10-19T01:51:29.482Z,9.10
2018-10-19T01:52:29.405Z,9.19
2018-10-19T01:53:29.376Z,9.19
2018-10-19T01:54:29.248Z,9.25
2018-10-19T01:55:29.171Z,9.27
2018-10-19T01:56:29.094Z,9.16
2018-10-19T01:57:29.015Z,9.31
2018-10-19T01:58:28.938Z,9.25
2018-10-19T01:59:28.860Z,9.17
2018-10-19T02:00:28.782Z,9.22
2018-10-19T02:01:28.706Z,9.25
2018-10-19T02:02:28.627Z,9.17
2018-10-19T02:03:28.550Z,9.20
2018-10-19T02:04:28.477Z,9.19
2018-10-19T02:05:28.395Z,9.32
2018-10-19T02:06:28.317Z,9.40
2018-10-19T02:07:28.241Z,9.40
2018-10-19T02:08:28.163Z,9.49
2018-10-19T02:09:28.085Z,9.47
2018-10-19T02:10:28.013Z,9.63
2018-10-19T02:11:27.980Z,9.67
2018-10-19T02:12:27.853Z,9.68
2018-10-19T02:13:27.774Z,9.71
2018-10-19T02:14:27.697Z,9.71
2018-10-19T02:15:27.620Z,9.83
2018-10-19T02:16:27.544Z,9.85
2018-10-19T02:17:27.468Z,9.88
2018-10-19T02:18:27.392Z,10.00
2018-10-19T02:19:27.311Z,10.01
2018-10-19T02:20:27.235Z,10.15
2018-10-19T02:21:27.157Z,10.11
2018-10-19T02:22:27.081Z,10.19
2018-10-19T02:23:27.004Z,10.25
2018-10-19T02:24:26.931Z,10.31
2018-10-19T02:25:26.851Z,10.33
2018-10-19T02:26:26.774Z,10.37
2018-10-19T02:27:26.698Z,10.34
2018-10-19T02:28:26.621Z,10.31
2018-10-19T02:29:26.598Z,10.41
2018-10-19T02:30:26.467Z,10.46
2018-10-19T02:31:26.390Z,10.43
2018-10-19T02:32:26.316Z,10.46
2018-10-19T02:33:26.237Z,10.37
2018-10-19T02:34:26.161Z,10.58
2018-10-19T02:35:26.085Z,10.49
2018-10-19T02:36:26.008Z,10.47
2018-10-19T02:37:25.931Z,10.47
2018-10-19T02:38:25.854Z,10.49
2018-10-19T02:39:25.778Z,10.59
2018-10-19T02:40:25.702Z,10.56
2018-10-19T02:41:25.625Z,10.59
2018-10-19T02:42:25.549Z,10.56
2018-10-19T02:43:25.473Z,10.69
2018-10-19T02:44:25.395Z,10.63
2018-10-19T02:45:25.326Z,10.69
2018-10-19T02:46:25.242Z,10.62
2018-10-19T02:47:25.216Z,10.62
2018-10-19T02:48:25.092Z,10.56
2018-10-19T02:49:25.016Z,10.53
2018-10-19T02:50:24.937Z,10.55
2018-10-19T02:51:24.861Z,10.49
2018-10-19T02:52:24.807Z,10.53
2018-10-19T02:53:24.707Z,10.44
2018-10-19T02:54:24.631Z,10.46
2018-10-19T02:55:24.555Z,10.44
2018-10-19T02:56:24.479Z,10.46
2018-10-19T02:57:24.402Z,10.46
2018-10-19T02:58:24.325Z,10.44
2018-10-19T02:59:24.249Z,10.37
2018-10-19T03:00:24.172Z,10.26
2018-10-19T03:01:24.095Z,10.34
2018-10-19T03:02:24.019Z,10.41
2018-10-19T03:03:23.944Z,10.31
2018-10-19T03:04:23.866Z,10.25
2018-10-19T03:05:23.839Z,10.37
2018-10-19T03:06:23.714Z,10.28
2018-10-19T03:07:23.636Z,10.29
2018-10-19T03:08:23.559Z,10.31
2018-10-19T03:09:23.482Z,10.29
2018-10-19T03:10:23.407Z,10.23
2018-10-19T03:11:23.358Z,10.36
2018-10-19T03:12:23.257Z,10.31
2018-10-19T03:13:23.176Z,10.39
2018-10-19T03:14:23.102Z,10.36
2018-10-19T03:15:23.024Z,10.28
2018-10-19T03:16:22.948Z,10.29
2018-10-19T03:17:22.872Z,10.26
2018-10-19T03:18:22.794Z,10.19
2018-10-19T03:19:22.718Z,10.34
2018-10-19T03:20:22.641Z,10.21
2018-10-19T03:21:22.564Z,10.18
2018-10-19T03:22:22.487Z,10.15
2018-10-19T03:23:22.461Z,10.18
2018-10-19T03:24:22.337Z,10.15
2018-10-19T03:25:22.287Z,10.11
2018-10-19T03:26:22.180Z,10.03
2018-10-19T03:27:22.151Z,10.01
2018-10-19T03:28:22.028Z,9.97
2018-10-19T03:29:22.135Z,9.98
2018-10-19T03:30:21.873Z,9.89
2018-10-19T03:31:21.796Z,9.82
2018-10-19T03:32:21.721Z,9.80
2018-10-19T03:33:21.643Z,9.70
2018-10-19T03:34:21.567Z,9.71
2018-10-19T03:35:21.489Z,9.72
2018-10-19T03:36:21.414Z,9.56
2018-10-19T03:37:21.334Z,9.61
2018-10-19T03:38:21.258Z,9.61
2018-10-19T03:39:21.182Z,9.58
2018-10-19T03:40:21.105Z,9.56
2018-10-19T03:41:21.076Z,9.58
2018-10-19T03:42:20.951Z,9.50
2018-10-19T03:43:20.872Z,9.43
2018-10-19T03:44:20.795Z,9.46
2018-10-19T03:45:20.718Z,9.50
2018-10-19T03:46:20.643Z,9.49
2018-10-19T03:47:20.654Z,9.52
2018-10-19T03:48:20.490Z,9.43
2018-10-19T03:49:20.496Z,9.45
2018-10-19T03:50:20.331Z,9.58
2018-10-19T03:51:20.255Z,9.61
2018-10-19T03:52:20.179Z,9.58
2018-10-19T03:53:20.160Z,9.58
2018-10-19T03:54:20.027Z,9.60
2018-10-19T03:55:19.947Z,9.60
2018-10-19T03:56:19.868Z,9.74
2018-10-19T03:57:19.792Z,9.74
2018-10-19T03:58:19.715Z,9.72
2018-10-19T03:59:19.781Z,9.72
2018-10-19T04:00:19.560Z,9.80
2018-10-19T04:01:19.484Z,9.65
2018-10-19T04:02:19.405Z,9.72
2018-10-19T04:03:19.431Z,9.78
2018-10-19T04:04:19.252Z,9.71
2018-10-19T04:05:19.424Z,9.79
2018-10-19T04:06:19.097Z,9.79
2018-10-19T04:07:19.019Z,9.79
2018-10-19T04:08:18.943Z,9.72
2018-10-19T04:09:18.937Z,9.72
2018-10-19T04:10:18.788Z,9.70
2018-10-19T04:11:18.763Z,9.83
2018-10-19T04:12:18.638Z,9.78
2018-10-19T04:13:18.556Z,9.75
2018-10-19T04:14:18.479Z,9.67
2018-10-19T04:15:18.465Z,9.83
2018-10-19T04:16:18.326Z,9.80
2018-10-19T04:17:18.391Z,9.71
2018-10-19T04:18:18.170Z,9.78
2018-10-19T04:19:18.096Z,9.74
2018-10-19T04:20:18.016Z,9.71
2018-10-19T04:21:18.009Z,9.71
2018-10-19T04:22:17.862Z,9.67
2018-10-19T04:23:17.795Z,9.68
2018-10-19T04:24:17.708Z,9.75
2018-10-19T04:25:17.629Z,9.75
2018-10-19T04:26:17.552Z,9.68
2018-10-19T04:27:17.610Z,9.68
2018-10-19T04:28:17.398Z,9.65
2018-10-19T04:29:17.438Z,9.71
2018-10-19T04:30:17.246Z,9.78
2018-10-19T04:31:17.226Z,9.68
2018-10-19T04:32:17.089Z,9.83
2018-10-19T04:33:17.105Z,9.82
2018-10-19T04:34:16.935Z,9.88
2018-10-19T04:35:17.020Z,9.90
2018-10-19T04:36:16.781Z,9.90
2018-10-19T04:37:16.703Z,9.90
2018-10-19T04:38:16.626Z,9.83
2018-10-19T04:39:16.555Z,9.90
2018-10-19T04:40:16.474Z,9.92
2018-10-19T04:41:16.671Z,9.92
2018-10-19T04:42:16.325Z,9.89
2018-10-19T04:43:16.241Z,9.88
2018-10-19T04:44:16.163Z,9.79
2018-10-19T04:45:16.123Z,9.82
2018-10-19T04:46:16.009Z,9.80
2018-10-19T04:47:15.999Z,9.82
2018-10-19T04:48:15.857Z,9.85
2018-10-19T04:49:15.781Z,9.83
2018-10-19T04:50:15.701Z,9.79
2018-10-19T04:51:15.710Z,9.71
2018-10-19T04:52:15.548Z,9.71
2018-10-19T04:53:15.628Z,9.82
2018-10-19T04:54:15.392Z,9.79
2018-10-19T04:55:15.317Z,9.79
2018-10-19T04:56:15.238Z,9.79
2018-10-19T04:57:15.213Z,9.83
2018-10-19T04:58:15.084Z,9.75
2018-10-19T04:59:15.200Z,9.86
2018-10-19T05:00:14.930Z,9.83
2018-10-19T05:01:14.853Z,9.85
2018-10-19T05:02:14.776Z,9.86
2018-10-19T05:03:14.795Z,9.90
2018-10-19T05:04:14.627Z,9.88
2018-10-19T05:05:14.672Z,9.96
2018-10-19T05:06:14.609Z,9.92
2018-10-19T05:07:14.390Z,10.01
2018-10-19T05:08:14.417Z,10.06
2018-10-19T05:09:14.243Z,10.06
2018-10-19T05:10:14.159Z,10.10
2018-10-19T05:11:14.313Z,10.07
2018-10-19T05:12:14.031Z,10.16
2018-10-19T05:13:13.928Z,10.13
2018-10-19T05:14:13.930Z,10.18
2018-10-19T05:15:13.775Z,10.21
2018-10-19T05:16:13.697Z,10.15
2018-10-19T05:17:13.818Z,10.18
2018-10-19T05:18:13.543Z,10.19
2018-10-19T05:19:13.469Z,10.15
2018-10-19T05:20:13.550Z,10.15
2018-10-19T05:21:13.311Z,10.16
2018-10-19T05:22:13.235Z,10.13
2018-10-19T05:23:13.406Z,10.19
2018-10-19T05:24:13.082Z,10.16
2018-10-19T05:25:13.006Z,10.25
2018-10-19T05:26:12.967Z,10.25
2018-10-19T05:27:12.855Z,10.22
2018-10-19T05:28:12.775Z,10.31
2018-10-19T05:29:12.964Z,10.31
2018-10-19T05:30:12.623Z,10.29
2018-10-19T05:31:12.542Z,10.18
2018-10-19T05:32:12.614Z,10.18
2018-10-19T05:33:12.391Z,10.22
2018-10-19T05:34:12.313Z,10.22
2018-10-19T05:35:12.562Z,10.23
2018-10-19T05:36:12.161Z,10.23
2018-10-19T05:37:12.083Z,10.22
2018-10-19T05:38:12.032Z,10.23
2018-10-19T05:39:11.932Z,10.22
2018-10-19T05:40:11.852Z,10.23
2018-10-19T05:41:11.972Z,10.15
2018-10-19T05:42:11.700Z,10.18
2018-10-19T05:43:11.622Z,10.21
2018-10-19T05:44:11.638Z,10.08
2018-10-19T05:45:11.471Z,10.19
2018-10-19T05:46:11.390Z,10.16
2018-10-19T05:47:11.568Z,10.08
2018-10-19T05:48:11.237Z,10.11
2018-10-19T05:49:11.159Z,10.10
2018-10-19T05:50:11.198Z,10.01
2018-10-19T05:51:11.007Z,10.04
2018-10-19T05:52:11.018Z,9.96
2018-10-19T05:53:10.932Z,9.93
2018-10-19T05:54:10.780Z,9.92
2018-10-19T05:55:10.699Z,9.97
2018-10-19T05:56:10.714Z,10.03
2018-10-19T05:57:10.544Z,9.96
2018-10-19T05:58:10.468Z,9.90
2018-10-19T05:59:10.423Z,9.83
2018-10-19T06:00:10.314Z,9.86
2018-10-19T06:01:10.237Z,9.68
2018-10-19T06:02:10.175Z,9.71
2018-10-19T06:03:10.085Z,9.60
2018-10-19T06:04:10.011Z,9.56
2018-10-19T06:05:10.164Z,9.49
2018-10-19T06:06:09.853Z,9.43
2018-10-19T06:07:09.775Z,9.42
2018-10-19T06:08:09.756Z,9.29
2018-10-19T06:09:09.624Z,9.28
2018-10-19T06:10:09.544Z,9.20
2018-10-19T06:11:09.573Z,9.14
2018-10-19T06:12:09.392Z,9.12
2018-10-19T06:13:09.310Z,9.10
2018-10-19T06:14:09.330Z,8.98
2018-10-19T06:15:09.162Z,8.94
2018-10-19T06:16:09.079Z,8.97
2018-10-19T06:17:09.140Z,8.88
2018-10-19T06:18:08.923Z,8.91
2018-10-19T06:19:08.847Z,8.82
2018-10-19T06:20:08.886Z,8.82
2018-10-19T06:21:08.769Z,8.79
2018-10-19T06:22:08.614Z,8.80
2018-10-19T06:23:08.728Z,8.77
2018-10-19T06:24:08.457Z,8.87
2018-10-19T06:25:08.381Z,8.82
2018-10-19T06:26:08.562Z,8.85
2018-10-19T06:27:08.232Z,8.76
2018-10-19T06:28:08.153Z,8.68
2018-10-19T06:29:08.133Z,8.69
2018-10-19T06:30:07.995Z,8.76
2018-10-19T06:31:07.913Z,8.65
2018-10-19T06:32:07.924Z,8.84
2018-10-19T06:33:07.757Z,8.80
2018-10-19T06:34:07.679Z,8.66
2018-10-19T06:35:07.618Z,8.77
2018-10-19T06:36:07.528Z,8.66
2018-10-19T06:37:07.447Z,8.70
2018-10-19T06:38:07.413Z,8.80
2018-10-19T06:39:07.290Z,8.84
2018-10-19T06:40:07.215Z,8.85
2018-10-19T06:41:07.215Z,8.87
2018-10-19T06:42:07.056Z,8.84
2018-10-19T06:43:06.979Z,8.93
2018-10-19T06:44:06.929Z,8.95
2018-10-19T06:45:06.823Z,8.95
2018-10-19T06:46:06.745Z,9.00
2018-10-19T06:47:06.752Z,8.94
2018-10-19T06:48:06.590Z,9.00
2018-10-19T06:49:06.569Z,8.98
2018-10-19T06:50:06.487Z,8.98
2018-10-19T06:51:06.356Z,9.05
2018-10-19T06:52:06.278Z,8.95
2018-10-19T06:53:06.207Z,9.02
2018-10-19T06:54:06.122Z,9.05
2018-10-19T06:55:06.045Z,8.98
2018-10-19T06:56:05.998Z,9.00
2018-10-19T06:57:05.892Z,9.03
2018-10-19T06:58:05.812Z,9.05
2018-10-19T06:59:05.966Z,9.10
2018-10-19T07:00:05.655Z,9.14
2018-10-19T07:01:05.580Z,9.27
2018-10-19T07:02:05.548Z,9.25
2018-10-19T07:03:05.422Z,9.32
2018-10-19T07:04:05.344Z,9.38
2018-10-19T07:05:08.159Z,9.35
2018-10-19T07:06:05.218Z,9.42
2018-10-19T07:07:05.111Z,9.43
2018-10-19T07:08:05.091Z,9.47
2018-10-19T07:09:04.955Z,9.46
2018-10-19T07:10:04.878Z,9.61
2018-10-19T07:11:04.911Z,9.61
2018-10-19T07:12:04.777Z,9.56
2018-10-19T07:13:04.651Z,9.49
2018-10-19T07:14:04.675Z,9.64
2018-10-19T07:15:04.490Z,9.78
2018-10-19T07:16:04.414Z,9.71
2018-10-19T07:17:04.495Z,9.75
2018-10-19T07:18:04.258Z,9.72
2018-10-19T07:19:04.256Z,9.71
2018-10-19T07:20:04.112Z,9.79
2018-10-19T07:21:04.026Z,9.85
2018-10-19T07:22:03.949Z,9.89
2018-10-19T07:23:03.884Z,9.93
2018-10-19T07:24:03.794Z,9.93
2018-10-19T07:25:03.718Z,9.97
2018-10-19T07:26:03.675Z,10.04
2018-10-19T07:27:03.563Z,10.01
2018-10-19T07:28:03.486Z,10.15
2018-10-19T07:29:03.465Z,10.10
2018-10-19T07:30:03.334Z,10.13
2018-10-19T07:31:03.255Z,10.25
2018-10-19T07:32:03.247Z,10.31
2018-10-19T07:33:03.102Z,10.25
2018-10-19T07:34:03.025Z,10.39
2018-10-19T07:35:03.022Z,10.44
2018-10-19T07:36:02.870Z,10.51
2018-10-19T07:37:02.793Z,10.62
2018-10-19T07:38:02.721Z,10.56
2018-10-19T07:39:02.640Z,10.66
2018-10-19T07:40:02.565Z,10.71
2018-10-19T07:41:02.525Z,10.67
2018-10-19T07:42:02.425Z,10.87
2018-10-19T07:43:02.342Z,10.84
2018-10-19T07:44:02.268Z,10.91
2018-10-19T07:45:02.181Z,10.81
2018-10-19T07:46:02.104Z,10.93
2018-10-19T07:47:02.063Z,10.96
2018-10-19T07:48:02.109Z,11.00
2018-10-19T07:49:01.874Z,11.03
2018-10-19T07:50:01.856Z,11.08
2018-10-19T07:51:01.723Z,11.16
2018-10-19T07:52:01.649Z,11.18
2018-10-19T07:53:01.644Z,11.26
2018-10-19T07:54:01.613Z,11.29
2018-10-19T07:55:01.422Z,11.34
2018-10-19T07:56:01.376Z,11.32
2018-10-19T07:57:01.267Z,11.38
2018-10-19T07:58:01.190Z,11.43
2018-10-19T07:59:01.134Z,11.54
2018-10-19T08:00:01.059Z,11.60
2018-10-19T08:01:00.968Z,11.54
2018-10-19T08:02:00.923Z,11.57
2018-10-19T08:03:00.814Z,11.51
2018-10-19T08:04:00.735Z,11.60
2018-10-19T08:05:00.748Z,11.65
2018-10-19T08:06:00.585Z,11.69
2018-10-19T08:07:00.509Z,11.65
2018-10-19T08:08:00.446Z,11.67
2018-10-19T08:09:00.357Z,11.72
2018-10-19T08:10:00.282Z,11.69
2018-10-19T08:11:00.270Z,11.60
2018-10-19T08:12:00.132Z,11.75
2018-10-19T08:13:00.056Z,11.81
2018-10-19T08:13:59.990Z,11.76
2018-10-19T08:14:59.905Z,11.79
2018-10-19T08:15:59.830Z,11.78
2018-10-19T08:16:59.888Z,11.98
2018-10-19T08:17:59.678Z,11.97
2018-10-19T08:18:59.602Z,12.02
2018-10-19T08:19:59.572Z,12.02
2018-10-19T08:20:59.471Z,12.09
2018-10-19T08:21:59.376Z,12.09
2018-10-19T08:22:59.304Z,12.16
2018-10-19T08:23:59.227Z,12.13
2018-10-19T08:24:59.150Z,12.16
2018-10-19T08:25:59.125Z,12.12
2018-10-19T08:26:59.000Z,12.18
2018-10-19T08:27:58.929Z,12.27
2018-10-19T08:28:58.901Z,12.27
2018-10-19T08:29:58.773Z,12.39
2018-10-19T08:30:58.700Z,12.41
2018-10-19T08:31:58.639Z,12.37
2018-10-19T08:32:58.548Z,12.41
2018-10-19T08:33:58.473Z,12.42
2018-10-19T08:34:58.463Z,12.45
2018-10-19T08:35:58.325Z,12.52
2018-10-19T08:36:58.249Z,12.52
2018-10-19T08:37:58.172Z,12.52
2018-10-19T08:38:58.101Z,12.63
2018-10-19T08:39:58.022Z,12.64
2018-10-19T08:40:57.981Z,12.55
2018-10-19T08:41:57.871Z,12.46
2018-10-19T08:42:57.850Z,12.63
2018-10-19T08:43:57.722Z,12.69
2018-10-19T08:44:57.652Z,12.82
2018-10-19T08:45:57.572Z,12.63
2018-10-19T08:46:57.600Z,12.61
2018-10-19T08:47:57.421Z,12.78
2018-10-19T08:48:57.357Z,12.78
2018-10-19T08:49:57.271Z,12.84
2018-10-19T08:50:57.213Z,12.91
2018-10-19T08:51:57.128Z,12.91
2018-10-19T08:52:57.078Z,13.03
2018-10-19T08:53:57.055Z,12.97
2018-10-19T08:54:56.902Z,12.97
2018-10-19T08:55:56.824Z,13.09
2018-10-19T08:56:56.765Z,13.09
2018-10-19T08:57:56.771Z,13.11
2018-10-19T08:58:56.769Z,13.15
2018-10-19T08:59:56.568Z,13.22
2018-10-19T09:00:56.450Z,13.33
2018-10-19T09:01:56.376Z,13.41
2018-10-19T09:02:56.351Z,13.45
2018-10-19T09:03:56.276Z,13.44
2018-10-19T09:04:56.307Z,13.53
2018-10-19T09:05:56.107Z,13.59
2018-10-19T09:06:56.003Z,13.71
2018-10-19T09:07:55.930Z,13.65
2018-10-19T09:08:55.858Z,13.76
2018-10-19T09:09:55.779Z,13.81
2018-10-19T09:10:55.950Z,13.98
2018-10-19T09:11:55.631Z,14.02
2018-10-19T09:12:55.643Z,14.07
2018-10-19T09:13:55.482Z,14.21
2018-10-19T09:14:55.451Z,14.21
2018-10-19T09:15:55.335Z,14.28
2018-10-19T09:16:55.415Z,14.29
2018-10-19T09:17:55.185Z,14.32
2018-10-19T09:18:55.113Z,14.39
2018-10-19T09:19:55.037Z,14.49
2018-10-19T09:20:55.031Z,14.46
2018-10-19T09:21:54.889Z,14.60
2018-10-19T09:22:55.140Z,14.54
2018-10-19T09:23:54.742Z,14.64
2018-10-19T09:24:54.672Z,14.59
2018-10-19T09:25:54.592Z,14.83
2018-10-19T09:26:54.544Z,14.88
2018-10-19T09:27:54.444Z,14.95
2018-10-19T09:28:54.424Z,14.98
2018-10-19T09:29:54.296Z,15.09
2018-10-19T09:30:54.223Z,15.08
2018-10-19T09:31:54.148Z,15.28
2018-10-19T09:32:54.133Z,15.39
2018-10-19T09:33:54.001Z,15.26
2018-10-19T09:34:53.997Z,15.41
2018-10-19T09:35:53.891Z,15.59
2018-10-19T09:36:53.842Z,15.75
2018-10-19T09:37:53.717Z,15.79
2018-10-19T09:38:53.659Z,15.92
2018-10-19T09:39:53.557Z,15.94
2018-10-19T09:40:53.607Z,16.15
2018-10-19T09:41:53.461Z,16.12
2018-10-19T09:42:53.339Z,16.23
2018-10-19T09:43:53.262Z,16.27
2018-10-19T09:44:53.197Z,16.34
2018-10-19T09:45:53.116Z,16.27
2018-10-19T09:46:53.279Z,16.30
2018-10-19T09:47:52.970Z,16.33
2018-10-19T09:48:52.927Z,16.26
2018-10-19T09:49:52.821Z,16.55
2018-10-19T09:50:52.752Z,16.60
2018-10-19T09:51:52.676Z,16.62
2018-10-19T09:52:52.709Z,16.57
2018-10-19T09:53:52.527Z,16.67
2018-10-19T09:54:52.534Z,16.63
2018-10-19T09:55:52.385Z,16.75
2018-10-19T09:56:52.310Z,16.73
2018-10-19T09:57:52.235Z,16.78
2018-10-19T09:58:52.315Z,16.81
2018-10-19T09:59:52.088Z,16.80
2018-10-19T10:00:52.019Z,16.88
2018-10-19T10:01:51.966Z,17.07
2018-10-19T10:02:51.871Z,17.00
2018-10-19T10:03:51.798Z,17.08
2018-10-19T10:04:51.725Z,17.02
2018-10-19T10:05:51.652Z,16.98
2018-10-19T10:06:51.581Z,17.03
2018-10-19T10:07:51.591Z,16.96
2018-10-19T10:08:51.433Z,16.95
2018-10-19T10:09:51.362Z,16.98
2018-10-19T10:10:51.289Z,16.96
2018-10-19T10:11:51.219Z,16.96
2018-10-19T10:12:51.142Z,16.92
2018-10-19T10:13:51.069Z,17.10
2018-10-19T10:14:51.069Z,17.11
2018-10-19T10:15:50.994Z,17.18
2018-10-19T10:16:50.903Z,17.21
2018-10-19T10:17:50.779Z,17.26
2018-10-19T10:18:50.711Z,17.40
2018-10-19T10:19:50.637Z,17.50
2018-10-19T10:20:50.567Z,17.57
2018-10-19T10:21:50.489Z,17.63
2018-10-19T10:22:50.554Z,17.60
2018-10-19T10:23:50.348Z,17.54
2018-10-19T10:24:50.324Z,17.50
2018-10-19T10:25:50.202Z,17.43
2018-10-19T10:26:50.132Z,17.54
2018-10-19T10:27:50.060Z,17.47
2018-10-19T10:28:49.986Z,17.60
2018-10-19T10:29:49.915Z,17.51
2018-10-19T10:30:49.843Z,17.60
2018-10-19T10:31:49.771Z,17.58
2018-10-19T10:32:49.699Z,17.55
2018-10-19T10:33:49.626Z,17.53
2018-10-19T10:34:49.606Z,17.58
2018-10-19T10:35:49.483Z,17.66
2018-10-19T10:36:49.413Z,17.57
2018-10-19T10:37:49.340Z,17.64
2018-10-19T10:38:49.399Z,17.57
2018-10-19T10:39:49.197Z,17.55
2018-10-19T10:40:49.123Z,17.69
2018-10-19T10:41:49.052Z,17.69
2018-10-19T10:42:48.979Z,17.67
2018-10-19T10:43:48.913Z,17.73
2018-10-19T10:44:48.835Z,17.74
2018-10-19T10:45:48.764Z,17.73
2018-10-19T10:46:48.727Z,17.77
2018-10-19T10:47:48.623Z,17.94
2018-10-19T10:48:48.547Z,18.00
2018-10-19T10:49:48.476Z,18.07
2018-10-19T10:50:48.404Z,18.19
2018-10-19T10:51:48.333Z,18.31
2018-10-19T10:52:48.410Z,18.31
2018-10-19T10:53:48.189Z,18.31
2018-10-19T10:54:48.118Z,18.43
2018-10-19T10:55:48.046Z,18.43
2018-10-19T10:56:47.977Z,18.31
2018-10-19T10:57:47.902Z,18.35
2018-10-19T10:58:47.836Z,18.43
2018-10-19T10:59:47.760Z,18.40
2018-10-19T11:00:47.688Z,18.52
2018-10-19T11:01:47.618Z,18.55
2018-10-19T11:02:47.546Z,18.74
2018-10-19T11:03:47.475Z,18.77
2018-10-19T11:04:47.403Z,18.83
2018-10-19T11:05:47.331Z,19.06
2018-10-19T11:06:47.264Z,19.18
2018-10-19T11:07:47.191Z,19.27
2018-10-19T11:08:47.120Z,19.64
2018-10-19T11:09:47.048Z,20.16
2018-10-19T11:10:47.027Z,20.46
2018-10-19T11:11:46.909Z,20.49
2018-10-19T11:12:46.836Z,20.43
2018-10-19T11:13:46.771Z,20.27
2018-10-19T11:14:46.696Z,20.10
2018-10-19T11:15:46.626Z,19.94
2018-10-19T11:16:46.755Z,19.87
2018-10-19T11:17:46.485Z,19.76
2018-10-19T11:18:46.416Z,19.51
2018-10-19T11:19:46.346Z,19.48
2018-10-19T11:20:46.275Z,19.11
2018-10-19T11:21:46.232Z,19.13
2018-10-19T11:22:46.240Z,19.45
2018-10-19T11:23:46.066Z,19.72
2018-10-19T11:24:45.995Z,19.68
2018-10-19T11:25:45.925Z,19.69
2018-10-19T11:26:45.856Z,19.61
2018-10-19T11:27:45.787Z,19.36
2018-10-19T11:28:45.816Z,19.14
2018-10-19T11:29:45.646Z,19.48
2018-10-19T11:30:45.626Z,19.71
2018-10-19T11:31:45.508Z,20.15
2018-10-19T11:32:45.437Z,20.82
2018-10-19T11:33:45.368Z,21.08
2018-10-19T11:34:45.300Z,21.46
2018-10-19T11:35:45.229Z,21.45
2018-10-19T11:36:45.160Z,21.53
2018-10-19T11:37:45.095Z,21.69
2018-10-19T11:38:45.027Z,21.92
2018-10-19T11:39:44.953Z,22.08
2018-10-19T11:40:47.503Z,22.24
2018-10-19T11:41:44.816Z,21.81
2018-10-19T11:42:44.747Z,21.81
2018-10-19T11:43:44.679Z,21.91
2018-10-19T11:44:44.611Z,21.91
2018-10-19T11:45:44.542Z,21.94
2018-10-19T11:46:44.725Z,22.13
2018-10-19T11:47:44.407Z,21.86
2018-10-19T11:48:44.349Z,21.54
2018-10-19T11:49:44.271Z,21.89
2018-10-19T11:50:44.202Z,21.70
2018-10-19T11:51:44.134Z,21.74
2018-10-19T11:52:44.068Z,21.82
2018-10-19T11:53:43.998Z,21.81
2018-10-19T11:54:43.931Z,21.74
2018-10-19T11:55:43.863Z,21.82
2018-10-19T11:56:43.796Z,22.07
2018-10-19T11:57:43.727Z,21.95
2018-10-19T11:58:43.661Z,22.13
2018-10-19T11:59:43.594Z,22.39
2018-10-19T12:00:43.528Z,22.77
2018-10-19T12:01:43.460Z,23.17
2018-10-19T12:02:43.392Z,23.52
2018-10-19T12:03:43.399Z,23.71
2018-10-19T12:04:43.307Z,24.11
2018-10-19T12:05:43.189Z,23.98
2018-10-19T12:06:43.123Z,24.40
2018-10-19T12:07:43.060Z,24.27
2018-10-19T12:08:42.991Z,24.10
2018-10-19T12:09:42.925Z,24.05
2018-10-19T12:10:42.863Z,23.82
2018-10-19T12:11:42.796Z,24.01
2018-10-19T12:12:42.728Z,23.50
2018-10-19T12:13:42.664Z,23.45
2018-10-19T12:14:42.597Z,23.24
2018-10-19T12:15:42.532Z,22.97
2018-10-19T12:16:42.533Z,23.18
2018-10-19T12:17:42.402Z,22.63
2018-10-19T12:18:42.335Z,22.31
2018-10-19T12:19:42.270Z,22.00
2018-10-19T12:20:42.261Z,21.49
2018-10-19T12:21:42.136Z,21.06
2018-10-19T12:22:42.121Z,20.98
2018-10-19T12:23:42.006Z,20.53
2018-10-19T12:24:41.938Z,20.05
2018-10-19T12:25:41.872Z,19.91
2018-10-19T12:26:41.806Z,19.98
2018-10-19T12:27:41.740Z,20.03
2018-10-19T12:28:41.671Z,19.87
2018-10-19T12:29:41.604Z,19.88
2018-10-19T12:30:41.540Z,19.91
2018-10-19T12:31:41.469Z,20.00
2018-10-19T12:32:41.400Z,20.09
2018-10-19T12:33:41.333Z,20.13
2018-10-19T12:34:41.265Z,20.08
2018-10-19T12:35:41.321Z,20.09
2018-10-19T12:36:41.128Z,20.05
2018-10-19T12:37:41.060Z,19.94
2018-10-19T12:38:40.993Z,19.90
2018-10-19T12:39:40.924Z,19.90
2018-10-19T12:40:40.906Z,19.87
2018-10-19T12:41:40.787Z,19.94
2018-10-19T12:42:40.719Z,20.01
2018-10-19T12:43:40.648Z,19.79
2018-10-19T12:44:40.581Z,19.75
2018-10-19T12:45:40.512Z,19.71
2018-10-19T12:46:40.443Z,19.68
2018-10-19T12:47:40.376Z,19.63
2018-10-19T12:48:40.304Z,19.53
2018-10-19T12:49:40.236Z,19.63
2018-10-19T12:50:40.167Z,19.71
2018-10-19T12:51:40.099Z,19.68
2018-10-19T12:52:40.128Z,19.71
2018-10-19T12:53:40.026Z,19.94
2018-10-19T12:54:39.889Z,20.06
2018-10-19T12:55:39.820Z,19.73
2018-10-19T12:56:39.749Z,19.75
2018-10-19T12:57:39.819Z,19.64
2018-10-19T12:58:39.763Z,19.53
2018-10-19T12:59:39.568Z,19.65
2018-10-19T13:00:39.471Z,19.90
2018-10-19T13:01:39.405Z,20.16
2018-10-19T13:02:39.336Z,20.59